SWA6813 KCOS-KPHX
Flight info
| Callsign | SWA6813 |
|---|---|
| Flight time | 1h 24m |
| Altitude | 27000 |
| Route | DRAKE V83 PUB/N0433F340 ALS/N0439F360 J102 GUP EAGUL6 |
| Aircraft | B737/M-SDE2E3FGHIRWXY/LB1 |
Departure
| Time | 2026-04-19 23:03 |
|---|---|
| Airport | City of Colorado Springs Municipal Airport (KCOS) |
Arrival
| Time | 2026-04-20 00:27 |
|---|---|
| Airport | Phoenix Sky Harbor International Airport (KPHX) |
| Time | Latitude | Longitude | Altitude | Speed | Heading |
|---|---|---|---|---|---|
| 2026-04-19 22:45 | 38.80016 | -104.70081 | 6192 ft | 0 kts | 179° |
| 2026-04-19 22:53 | 38.80029 | -104.70081 | 6192 ft | 2 kts | 179° |
| 2026-04-19 22:53 | 38.80045 | -104.70081 | 6192 ft | 2 kts | 179° |
| 2026-04-19 22:53 | 38.80062 | -104.70082 | 6193 ft | 2 kts | 179° |
| 2026-04-19 22:53 | 38.80076 | -104.70089 | 6193 ft | 2 kts | 95° |
| 2026-04-19 22:54 | 38.80076 | -104.70110 | 6192 ft | 2 kts | 91° |
| 2026-04-19 22:54 | 38.80077 | -104.70131 | 6192 ft | 2 kts | 91° |
| 2026-04-19 22:54 | 38.80077 | -104.70136 | 6191 ft | 0 kts | 91° |
| 2026-04-19 22:55 | 38.80087 | -104.70108 | 6191 ft | 5 kts | 51° |
| 2026-04-19 22:55 | 38.80108 | -104.70093 | 6193 ft | 6 kts | 16° |
| 2026-04-19 22:56 | 38.80157 | -104.70086 | 6193 ft | 8 kts | 2° |
| 2026-04-19 22:56 | 38.80222 | -104.70086 | 6193 ft | 10 kts | 0° |
| 2026-04-19 22:56 | 38.80277 | -104.70033 | 6193 ft | 11 kts | 79° |
| 2026-04-19 22:56 | 38.80278 | -104.69923 | 6193 ft | 13 kts | 89° |
| 2026-04-19 22:57 | 38.80280 | -104.69800 | 6193 ft | 15 kts | 89° |
| 2026-04-19 22:57 | 38.80281 | -104.69659 | 6193 ft | 17 kts | 90° |
| 2026-04-19 22:57 | 38.80280 | -104.69505 | 6193 ft | 18 kts | 90° |
| 2026-04-19 22:57 | 38.80279 | -104.69338 | 6193 ft | 19 kts | 90° |
| 2026-04-19 22:58 | 38.80277 | -104.69171 | 6193 ft | 18 kts | 89° |
| 2026-04-19 22:58 | 38.80278 | -104.69010 | 6193 ft | 18 kts | 90° |
| 2026-04-19 22:58 | 38.80278 | -104.68854 | 6193 ft | 17 kts | 87° |
| 2026-04-19 22:58 | 38.80367 | -104.68787 | 6193 ft | 17 kts | 0° |
| 2026-04-19 22:59 | 38.80480 | -104.68787 | 6192 ft | 16 kts | 0° |
| 2026-04-19 22:59 | 38.80589 | -104.68787 | 6192 ft | 15 kts | 0° |
| 2026-04-19 22:59 | 38.80694 | -104.68787 | 6192 ft | 15 kts | 360° |
| 2026-04-19 22:59 | 38.80793 | -104.68787 | 6192 ft | 14 kts | 360° |
| 2026-04-19 23:00 | 38.80889 | -104.68787 | 6192 ft | 13 kts | 1° |
| 2026-04-19 23:00 | 38.80983 | -104.68786 | 6192 ft | 14 kts | 0° |
| 2026-04-19 23:00 | 38.81083 | -104.68787 | 6193 ft | 15 kts | 0° |
| 2026-04-19 23:00 | 38.81188 | -104.68786 | 6193 ft | 15 kts | 0° |
| 2026-04-19 23:01 | 38.81296 | -104.68785 | 6193 ft | 16 kts | 0° |
| 2026-04-19 23:01 | 38.81406 | -104.68790 | 6193 ft | 15 kts | 358° |
| 2026-04-19 23:01 | 38.81515 | -104.68789 | 6193 ft | 16 kts | 2° |
| 2026-04-19 23:01 | 38.81599 | -104.68731 | 6192 ft | 15 kts | 85° |
| 2026-04-19 23:02 | 38.81592 | -104.68600 | 6194 ft | 14 kts | 117° |
| 2026-04-19 23:02 | 38.81484 | -104.68574 | 6194 ft | 33 kts | 180° |
| 2026-04-19 23:02 | 38.80994 | -104.68575 | 6190 ft | 108 kts | 180° |
| 2026-04-19 23:02 | 38.80019 | -104.68574 | 6195 ft | 170 kts | 180° |
| 2026-04-19 23:03 | 38.78655 | -104.68572 | 6366 ft | 214 kts | 179° |
| 2026-04-19 23:03 | 38.77116 | -104.68258 | 7055 ft | 239 kts | 160° |
| 2026-04-19 23:03 | 38.75701 | -104.66900 | 7434 ft | 272 kts | 124° |
| 2026-04-19 23:03 | 38.74717 | -104.64808 | 8500 ft | 279 kts | 123° |
| 2026-04-19 23:04 | 38.73680 | -104.62667 | 9692 ft | 287 kts | 125° |
| 2026-04-19 23:04 | 38.72553 | -104.60536 | 10638 ft | 297 kts | 127° |
| 2026-04-19 23:04 | 38.71317 | -104.58360 | 11630 ft | 306 kts | 128° |
| 2026-04-19 23:04 | 38.70006 | -104.56162 | 12677 ft | 314 kts | 129° |
| 2026-04-19 23:05 | 38.68631 | -104.53925 | 13589 ft | 324 kts | 129° |
| 2026-04-19 23:05 | 38.67195 | -104.51632 | 14419 ft | 334 kts | 130° |
| 2026-04-19 23:05 | 38.65716 | -104.49292 | 15323 ft | 339 kts | 129° |
| 2026-04-19 23:05 | 38.64234 | -104.46959 | 16236 ft | 344 kts | 129° |
| 2026-04-19 23:06 | 38.62703 | -104.44556 | 17131 ft | 350 kts | 130° |
| 2026-04-19 23:06 | 38.60848 | -104.42532 | 17887 ft | 355 kts | 154° |
| 2026-04-19 23:06 | 38.58524 | -104.41533 | 18661 ft | 353 kts | 178° |
| 2026-04-19 23:06 | 38.56079 | -104.41478 | 19403 ft | 351 kts | 187° |
| 2026-04-19 23:07 | 38.53623 | -104.41612 | 20140 ft | 355 kts | 188° |
| 2026-04-19 23:07 | 38.51163 | -104.41778 | 20839 ft | 359 kts | 189° |
| 2026-04-19 23:07 | 38.48652 | -104.41941 | 21600 ft | 362 kts | 189° |
| 2026-04-19 23:07 | 38.46118 | -104.42089 | 22321 ft | 366 kts | 189° |
| 2026-04-19 23:08 | 38.43561 | -104.42224 | 23044 ft | 369 kts | 189° |
| 2026-04-19 23:08 | 38.41007 | -104.42350 | 23713 ft | 372 kts | 189° |
| 2026-04-19 23:08 | 38.38403 | -104.42475 | 24279 ft | 375 kts | 190° |
| 2026-04-19 23:08 | 38.35778 | -104.42598 | 24887 ft | 376 kts | 190° |
| 2026-04-19 23:09 | 38.33152 | -104.42723 | 25463 ft | 378 kts | 190° |
| 2026-04-19 23:09 | 38.30584 | -104.43208 | 25950 ft | 366 kts | 209° |
| 2026-04-19 23:09 | 38.28389 | -104.44674 | 26501 ft | 349 kts | 226° |
| 2026-04-19 23:09 | 38.26699 | -104.46744 | 27153 ft | 336 kts | 236° |
| 2026-04-19 23:10 | 38.25178 | -104.48973 | 27874 ft | 331 kts | 238° |
| 2026-04-19 23:10 | 38.23700 | -104.51221 | 28519 ft | 329 kts | 238° |
| 2026-04-19 23:10 | 38.22235 | -104.53464 | 29128 ft | 327 kts | 238° |
| 2026-04-19 23:10 | 38.20784 | -104.55678 | 29766 ft | 324 kts | 238° |
| 2026-04-19 23:11 | 38.19335 | -104.57883 | 29861 ft | 337 kts | 238° |
| 2026-04-19 23:11 | 38.17804 | -104.60209 | 29898 ft | 349 kts | 238° |
| 2026-04-19 23:11 | 38.16216 | -104.62604 | 30110 ft | 356 kts | 237° |
| 2026-04-19 23:11 | 38.14583 | -104.65055 | 30049 ft | 371 kts | 237° |
| 2026-04-19 23:12 | 38.12884 | -104.67598 | 30076 ft | 382 kts | 237° |
| 2026-04-19 23:12 | 38.11156 | -104.70174 | 30069 ft | 393 kts | 236° |
| 2026-04-19 23:12 | 38.09346 | -104.72866 | 30069 ft | 404 kts | 236° |
| 2026-04-19 23:12 | 38.07496 | -104.75613 | 30070 ft | 414 kts | 236° |
| 2026-04-19 23:13 | 38.03677 | -104.81271 | 30061 ft | 431 kts | 236° |
| 2026-04-19 23:13 | 37.99700 | -104.87150 | 30064 ft | 443 kts | 235° |
| 2026-04-19 23:14 | 37.95685 | -104.93069 | 30065 ft | 443 kts | 235° |
| 2026-04-19 23:14 | 37.91660 | -104.98995 | 30083 ft | 443 kts | 235° |
| 2026-04-19 23:15 | 37.87655 | -105.04891 | 30096 ft | 444 kts | 235° |
| 2026-04-19 23:15 | 37.83623 | -105.10818 | 30112 ft | 444 kts | 235° |
| 2026-04-19 23:16 | 37.79611 | -105.16705 | 30123 ft | 445 kts | 235° |
| 2026-04-19 23:16 | 37.75567 | -105.22628 | 30139 ft | 445 kts | 235° |
| 2026-04-19 23:17 | 37.71502 | -105.28570 | 30135 ft | 445 kts | 235° |
| 2026-04-19 23:17 | 37.67469 | -105.34454 | 30145 ft | 446 kts | 234° |
| 2026-04-19 23:18 | 37.63400 | -105.40380 | 30137 ft | 446 kts | 234° |
| 2026-04-19 23:18 | 37.59352 | -105.46266 | 30142 ft | 446 kts | 234° |
| 2026-04-19 23:19 | 37.55274 | -105.52184 | 30151 ft | 447 kts | 234° |
| 2026-04-19 23:19 | 37.51172 | -105.58127 | 30156 ft | 448 kts | 234° |
| 2026-04-19 23:20 | 37.47090 | -105.64031 | 30175 ft | 448 kts | 234° |
| 2026-04-19 23:20 | 37.42985 | -105.69956 | 30194 ft | 449 kts | 234° |
| 2026-04-19 23:21 | 37.38891 | -105.75857 | 30198 ft | 450 kts | 234° |
| 2026-04-19 23:21 | 37.34773 | -105.81793 | 30202 ft | 450 kts | 235° |
| 2026-04-19 23:22 | 37.30955 | -105.88020 | 30197 ft | 448 kts | 238° |
| 2026-04-19 23:22 | 37.27329 | -105.94347 | 30190 ft | 449 kts | 239° |
| 2026-04-19 23:23 | 37.23668 | -106.00686 | 30169 ft | 450 kts | 238° |
| 2026-04-19 23:23 | 37.19965 | -106.07003 | 30166 ft | 451 kts | 238° |
| 2026-04-19 23:24 | 37.16232 | -106.13324 | 30163 ft | 451 kts | 238° |
| 2026-04-19 23:24 | 37.12473 | -106.19673 | 30179 ft | 451 kts | 238° |
| 2026-04-19 23:25 | 37.08740 | -106.25967 | 30187 ft | 452 kts | 237° |
| 2026-04-19 23:25 | 37.04998 | -106.32267 | 30199 ft | 452 kts | 237° |
| 2026-04-19 23:26 | 37.01227 | -106.38605 | 30198 ft | 452 kts | 237° |
| 2026-04-19 23:26 | 36.97491 | -106.44871 | 30205 ft | 451 kts | 237° |
| 2026-04-19 23:27 | 36.93733 | -106.51165 | 30190 ft | 452 kts | 237° |
| 2026-04-19 23:27 | 36.89962 | -106.57466 | 30189 ft | 452 kts | 237° |
| 2026-04-19 23:28 | 36.86187 | -106.63764 | 30167 ft | 453 kts | 237° |
| 2026-04-19 23:28 | 36.82417 | -106.70039 | 30161 ft | 453 kts | 237° |
| 2026-04-19 23:29 | 36.78621 | -106.76348 | 30152 ft | 454 kts | 236° |
| 2026-04-19 23:29 | 36.74839 | -106.82622 | 30125 ft | 454 kts | 236° |
| 2026-04-19 23:30 | 36.71026 | -106.88935 | 30125 ft | 455 kts | 236° |
| 2026-04-19 23:30 | 36.67228 | -106.95212 | 30128 ft | 456 kts | 236° |
| 2026-04-19 23:31 | 36.63382 | -107.01556 | 30111 ft | 457 kts | 236° |
| 2026-04-19 23:31 | 36.59552 | -107.07862 | 30112 ft | 458 kts | 236° |
| 2026-04-19 23:32 | 36.55711 | -107.14177 | 30113 ft | 458 kts | 236° |
| 2026-04-19 23:32 | 36.52012 | -107.20244 | 30109 ft | 459 kts | 235° |
| 2026-04-19 23:33 | 36.48129 | -107.26607 | 30104 ft | 459 kts | 235° |
| 2026-04-19 23:33 | 36.44265 | -107.32922 | 30109 ft | 459 kts | 235° |
| 2026-04-19 23:34 | 36.40422 | -107.39196 | 30103 ft | 460 kts | 235° |
| 2026-04-19 23:34 | 36.36545 | -107.45517 | 30109 ft | 460 kts | 235° |
| 2026-04-19 23:35 | 36.32660 | -107.51842 | 30098 ft | 461 kts | 235° |
| 2026-04-19 23:35 | 36.28763 | -107.58174 | 30099 ft | 461 kts | 234° |
| 2026-04-19 23:36 | 36.24874 | -107.64483 | 30096 ft | 461 kts | 234° |
| 2026-04-19 23:36 | 36.20964 | -107.70810 | 30097 ft | 462 kts | 234° |
| 2026-04-19 23:37 | 36.17076 | -107.77080 | 30085 ft | 462 kts | 234° |
| 2026-04-19 23:37 | 36.13157 | -107.83387 | 30083 ft | 462 kts | 234° |
| 2026-04-19 23:38 | 36.09243 | -107.89677 | 30063 ft | 461 kts | 234° |
| 2026-04-19 23:38 | 36.05321 | -107.95970 | 30059 ft | 460 kts | 233° |
| 2026-04-19 23:39 | 36.01435 | -108.02194 | 30045 ft | 459 kts | 233° |
| 2026-04-19 23:39 | 35.97525 | -108.08447 | 30045 ft | 458 kts | 233° |
| 2026-04-19 23:40 | 35.93622 | -108.14676 | 30037 ft | 457 kts | 233° |
| 2026-04-19 23:40 | 35.89751 | -108.20843 | 30029 ft | 457 kts | 233° |
| 2026-04-19 23:41 | 35.86149 | -108.26571 | 30018 ft | 457 kts | 233° |
| 2026-04-19 23:41 | 35.82271 | -108.32728 | 30026 ft | 457 kts | 233° |
| 2026-04-19 23:42 | 35.78366 | -108.38917 | 30007 ft | 457 kts | 233° |
| 2026-04-19 23:42 | 35.74474 | -108.45075 | 29939 ft | 458 kts | 232° |
| 2026-04-19 23:43 | 35.70551 | -108.51270 | 30036 ft | 460 kts | 232° |
| 2026-04-19 23:43 | 35.66588 | -108.57516 | 30087 ft | 462 kts | 232° |
| 2026-04-19 23:44 | 35.62634 | -108.63738 | 30126 ft | 463 kts | 232° |
| 2026-04-19 23:44 | 35.58656 | -108.69986 | 30157 ft | 462 kts | 232° |
| 2026-04-19 23:45 | 35.54709 | -108.76176 | 30175 ft | 463 kts | 232° |
| 2026-04-19 23:45 | 35.51401 | -108.81357 | 30174 ft | 463 kts | 232° |
| 2026-04-19 23:46 | 35.46735 | -108.88571 | 30171 ft | 464 kts | 230° |
| 2026-04-19 23:46 | 35.43095 | -108.93431 | 30141 ft | 464 kts | 226° |
| 2026-04-19 23:47 | 35.38598 | -108.99087 | 30093 ft | 465 kts | 226° |
| 2026-04-19 23:47 | 35.34093 | -109.04799 | 30044 ft | 465 kts | 226° |
| 2026-04-19 23:48 | 35.29644 | -109.10514 | 29991 ft | 465 kts | 227° |
| 2026-04-19 23:48 | 35.25170 | -109.16284 | 29973 ft | 465 kts | 227° |
| 2026-04-19 23:49 | 35.20738 | -109.21990 | 29968 ft | 465 kts | 227° |
| 2026-04-19 23:49 | 35.16263 | -109.27738 | 29965 ft | 466 kts | 226° |
| 2026-04-19 23:50 | 35.11783 | -109.33483 | 29963 ft | 466 kts | 226° |
| 2026-04-19 23:50 | 35.07328 | -109.39184 | 29955 ft | 466 kts | 226° |
| 2026-04-19 23:51 | 35.02844 | -109.44913 | 29955 ft | 466 kts | 226° |
| 2026-04-19 23:51 | 34.98346 | -109.50650 | 29951 ft | 467 kts | 226° |
| 2026-04-19 23:52 | 34.93879 | -109.56339 | 29943 ft | 467 kts | 226° |
| 2026-04-19 23:52 | 34.89362 | -109.62082 | 29946 ft | 468 kts | 226° |
| 2026-04-19 23:53 | 34.84878 | -109.67775 | 29942 ft | 468 kts | 226° |
| 2026-04-19 23:53 | 34.80378 | -109.73493 | 29941 ft | 469 kts | 226° |
| 2026-04-19 23:54 | 34.75872 | -109.79236 | 29951 ft | 469 kts | 226° |
| 2026-04-19 23:54 | 34.71379 | -109.85007 | 29954 ft | 470 kts | 230° |
| 2026-04-19 23:55 | 34.69613 | -109.88347 | 29990 ft | 469 kts | 245° |
| 2026-04-19 23:55 | 34.68288 | -109.91981 | 30008 ft | 470 kts | 246° |
| 2026-04-19 23:55 | 34.65694 | -109.99228 | 30048 ft | 470 kts | 246° |
| 2026-04-19 23:56 | 34.63023 | -110.06510 | 30074 ft | 471 kts | 245° |
| 2026-04-19 23:56 | 34.60327 | -110.13730 | 30096 ft | 470 kts | 245° |
| 2026-04-19 23:57 | 34.57609 | -110.20970 | 30106 ft | 470 kts | 245° |
| 2026-04-19 23:57 | 34.54914 | -110.28142 | 30087 ft | 469 kts | 245° |
| 2026-04-19 23:58 | 34.52249 | -110.35229 | 30002 ft | 444 kts | 245° |
| 2026-04-19 23:58 | 34.50986 | -110.38581 | 29871 ft | 428 kts | 245° |
| 2026-04-19 23:58 | 34.49785 | -110.41763 | 29760 ft | 412 kts | 244° |
| 2026-04-19 23:59 | 34.48608 | -110.44880 | 29503 ft | 399 kts | 244° |
| 2026-04-19 23:59 | 34.47459 | -110.47914 | 28758 ft | 392 kts | 244° |
| 2026-04-19 23:59 | 34.46317 | -110.50925 | 27787 ft | 393 kts | 244° |
| 2026-04-19 23:59 | 34.45178 | -110.53927 | 26906 ft | 391 kts | 244° |
| 2026-04-20 00:00 | 34.44044 | -110.56918 | 26137 ft | 388 kts | 244° |
| 2026-04-20 00:00 | 34.42936 | -110.59836 | 25432 ft | 384 kts | 244° |
| 2026-04-20 00:00 | 34.41825 | -110.62760 | 24737 ft | 380 kts | 243° |
| 2026-04-20 00:00 | 34.40718 | -110.65668 | 24414 ft | 381 kts | 243° |
| 2026-04-20 00:01 | 34.39603 | -110.68596 | 24313 ft | 382 kts | 243° |
| 2026-04-20 00:01 | 34.38496 | -110.71506 | 24176 ft | 380 kts | 243° |
| 2026-04-20 00:01 | 34.36284 | -110.77305 | 24015 ft | 381 kts | 243° |
| 2026-04-20 00:02 | 34.35030 | -110.80123 | 23973 ft | 377 kts | 231° |
| 2026-04-20 00:02 | 34.33323 | -110.82488 | 24021 ft | 375 kts | 225° |
| 2026-04-20 00:02 | 34.31514 | -110.84782 | 23961 ft | 372 kts | 224° |
| 2026-04-20 00:02 | 34.29752 | -110.86991 | 23556 ft | 365 kts | 224° |
| 2026-04-20 00:03 | 34.27995 | -110.89206 | 22786 ft | 364 kts | 224° |
| 2026-04-20 00:03 | 34.26254 | -110.91422 | 21931 ft | 364 kts | 225° |
| 2026-04-20 00:03 | 34.24515 | -110.93651 | 21130 ft | 363 kts | 225° |
| 2026-04-20 00:03 | 34.22794 | -110.95866 | 20424 ft | 360 kts | 225° |
| 2026-04-20 00:04 | 34.21087 | -110.98069 | 19730 ft | 357 kts | 225° |
| 2026-04-20 00:04 | 34.19385 | -111.00265 | 19030 ft | 356 kts | 225° |
| 2026-04-20 00:04 | 34.17715 | -111.02419 | 18361 ft | 354 kts | 226° |
| 2026-04-20 00:04 | 34.16034 | -111.04586 | 17667 ft | 351 kts | 226° |
| 2026-04-20 00:05 | 34.14357 | -111.06744 | 17442 ft | 353 kts | 225° |
| 2026-04-20 00:05 | 34.12678 | -111.08904 | 17320 ft | 352 kts | 225° |
| 2026-04-20 00:05 | 34.11020 | -111.11036 | 17224 ft | 352 kts | 225° |
| 2026-04-20 00:05 | 34.09343 | -111.13189 | 17195 ft | 351 kts | 225° |
| 2026-04-20 00:06 | 34.07663 | -111.15345 | 17183 ft | 351 kts | 225° |
| 2026-04-20 00:06 | 34.05989 | -111.17494 | 17181 ft | 351 kts | 225° |
| 2026-04-20 00:06 | 34.04317 | -111.19639 | 17177 ft | 351 kts | 225° |
| 2026-04-20 00:06 | 34.02660 | -111.21762 | 17185 ft | 358 kts | 225° |
| 2026-04-20 00:07 | 34.00908 | -111.24005 | 17179 ft | 373 kts | 225° |
| 2026-04-20 00:07 | 33.99117 | -111.26296 | 17150 ft | 375 kts | 225° |
| 2026-04-20 00:07 | 33.97325 | -111.28590 | 17137 ft | 376 kts | 225° |
| 2026-04-20 00:07 | 33.95535 | -111.30880 | 17112 ft | 375 kts | 225° |
| 2026-04-20 00:08 | 33.93750 | -111.33164 | 17091 ft | 374 kts | 225° |
| 2026-04-20 00:08 | 33.91963 | -111.35448 | 17072 ft | 374 kts | 225° |
| 2026-04-20 00:08 | 33.90235 | -111.37656 | 17024 ft | 358 kts | 224° |
| 2026-04-20 00:08 | 33.88568 | -111.39787 | 16883 ft | 339 kts | 224° |
| 2026-04-20 00:09 | 33.87113 | -111.41942 | 16689 ft | 324 kts | 233° |
| 2026-04-20 00:09 | 33.85915 | -111.44210 | 16184 ft | 320 kts | 236° |
| 2026-04-20 00:09 | 33.84773 | -111.46513 | 15563 ft | 320 kts | 236° |
| 2026-04-20 00:09 | 33.83625 | -111.48810 | 14990 ft | 318 kts | 236° |
| 2026-04-20 00:10 | 33.82468 | -111.51067 | 14462 ft | 315 kts | 235° |
| 2026-04-20 00:10 | 33.81307 | -111.53293 | 13950 ft | 313 kts | 235° |
| 2026-04-20 00:10 | 33.80164 | -111.55468 | 13411 ft | 310 kts | 234° |
| 2026-04-20 00:10 | 33.79009 | -111.57657 | 12823 ft | 309 kts | 234° |
| 2026-04-20 00:11 | 33.77851 | -111.59832 | 12275 ft | 306 kts | 234° |
| 2026-04-20 00:11 | 33.76709 | -111.61974 | 11789 ft | 301 kts | 234° |
| 2026-04-20 00:11 | 33.75597 | -111.64060 | 11258 ft | 299 kts | 234° |
| 2026-04-20 00:11 | 33.74475 | -111.66164 | 10718 ft | 297 kts | 234° |
| 2026-04-20 00:12 | 33.73363 | -111.68248 | 10247 ft | 294 kts | 234° |
| 2026-04-20 00:12 | 33.72277 | -111.70286 | 10121 ft | 285 kts | 234° |
| 2026-04-20 00:12 | 33.71213 | -111.72277 | 10051 ft | 284 kts | 234° |
| 2026-04-20 00:12 | 33.70127 | -111.74309 | 10059 ft | 292 kts | 234° |
| 2026-04-20 00:13 | 33.69025 | -111.76383 | 10050 ft | 296 kts | 234° |
| 2026-04-20 00:13 | 33.67924 | -111.78461 | 10043 ft | 293 kts | 234° |
| 2026-04-20 00:13 | 33.66855 | -111.80480 | 10034 ft | 285 kts | 234° |
| 2026-04-20 00:13 | 33.65828 | -111.82422 | 10018 ft | 264 kts | 234° |
| 2026-04-20 00:14 | 33.64881 | -111.84211 | 10042 ft | 245 kts | 234° |
| 2026-04-20 00:14 | 33.63969 | -111.85925 | 10060 ft | 243 kts | 234° |
| 2026-04-20 00:14 | 33.63052 | -111.87644 | 10071 ft | 245 kts | 234° |
| 2026-04-20 00:14 | 33.62143 | -111.89350 | 9947 ft | 240 kts | 234° |
| 2026-04-20 00:15 | 33.61253 | -111.91023 | 9570 ft | 235 kts | 234° |
| 2026-04-20 00:15 | 33.60378 | -111.92666 | 8985 ft | 237 kts | 234° |
| 2026-04-20 00:15 | 33.59482 | -111.94348 | 8427 ft | 239 kts | 234° |
| 2026-04-20 00:15 | 33.58588 | -111.96025 | 7910 ft | 237 kts | 234° |
| 2026-04-20 00:16 | 33.57700 | -111.97693 | 7409 ft | 236 kts | 234° |
| 2026-04-20 00:16 | 33.56813 | -111.99355 | 7175 ft | 239 kts | 234° |
| 2026-04-20 00:16 | 33.55928 | -112.01015 | 7087 ft | 238 kts | 234° |
| 2026-04-20 00:16 | 33.55036 | -112.02688 | 6989 ft | 238 kts | 234° |
| 2026-04-20 00:17 | 33.54144 | -112.04359 | 7013 ft | 238 kts | 234° |
| 2026-04-20 00:17 | 33.53248 | -112.06036 | 7003 ft | 238 kts | 234° |
| 2026-04-20 00:17 | 33.52555 | -112.07836 | 6984 ft | 243 kts | 258° |
| 2026-04-20 00:17 | 33.52487 | -112.09867 | 7008 ft | 246 kts | 268° |
| 2026-04-20 00:18 | 33.52506 | -112.11872 | 6845 ft | 239 kts | 268° |
| 2026-04-20 00:18 | 33.52507 | -112.13873 | 6295 ft | 240 kts | 263° |
| 2026-04-20 00:18 | 33.51957 | -112.15744 | 5696 ft | 239 kts | 238° |
| 2026-04-20 00:18 | 33.51144 | -112.17479 | 5208 ft | 237 kts | 238° |
| 2026-04-20 00:19 | 33.50348 | -112.19184 | 4720 ft | 237 kts | 239° |
| 2026-04-20 00:19 | 33.49544 | -112.20926 | 4199 ft | 237 kts | 239° |
| 2026-04-20 00:19 | 33.48756 | -112.22644 | 3962 ft | 232 kts | 239° |
| 2026-04-20 00:19 | 33.47971 | -112.24359 | 3981 ft | 237 kts | 239° |
| 2026-04-20 00:20 | 33.47173 | -112.26104 | 3997 ft | 239 kts | 239° |
| 2026-04-20 00:20 | 33.46391 | -112.27817 | 3960 ft | 227 kts | 239° |
| 2026-04-20 00:20 | 33.45638 | -112.29392 | 3952 ft | 208 kts | 230° |
| 2026-04-20 00:20 | 33.44500 | -112.30276 | 4012 ft | 193 kts | 185° |
| 2026-04-20 00:21 | 33.43270 | -112.29921 | 4015 ft | 187 kts | 138° |
| 2026-04-20 00:21 | 33.42713 | -112.28556 | 4028 ft | 189 kts | 90° |
| 2026-04-20 00:21 | 33.42868 | -112.26974 | 4021 ft | 194 kts | 85° |
| 2026-04-20 00:21 | 33.42968 | -112.25375 | 4007 ft | 190 kts | 89° |
| 2026-04-20 00:22 | 33.43016 | -112.23810 | 3965 ft | 187 kts | 90° |
| 2026-04-20 00:22 | 33.43040 | -112.22298 | 3996 ft | 176 kts | 90° |
| 2026-04-20 00:22 | 33.43058 | -112.20862 | 3647 ft | 168 kts | 91° |
| 2026-04-20 00:22 | 33.43077 | -112.19461 | 3153 ft | 167 kts | 90° |
| 2026-04-20 00:23 | 33.43088 | -112.18053 | 2563 ft | 171 kts | 91° |
| 2026-04-20 00:23 | 33.43094 | -112.16661 | 2215 ft | 160 kts | 91° |
| 2026-04-20 00:23 | 33.43099 | -112.15372 | 2098 ft | 154 kts | 92° |
| 2026-04-20 00:23 | 33.43101 | -112.14098 | 2014 ft | 148 kts | 90° |
| 2026-04-20 00:24 | 33.43103 | -112.12954 | 1979 ft | 132 kts | 91° |
| 2026-04-20 00:24 | 33.43105 | -112.11832 | 1989 ft | 135 kts | 91° |
| 2026-04-20 00:24 | 33.43107 | -112.10710 | 1983 ft | 136 kts | 92° |
| 2026-04-20 00:24 | 33.43107 | -112.09564 | 2004 ft | 140 kts | 91° |
| 2026-04-20 00:25 | 33.43109 | -112.08816 | 2000 ft | 141 kts | 90° |
| 2026-04-20 00:25 | 33.43106 | -112.07642 | 1935 ft | 140 kts | 91° |
| 2026-04-20 00:25 | 33.43106 | -112.06475 | 1772 ft | 143 kts | 90° |
| 2026-04-20 00:25 | 33.43112 | -112.05319 | 1618 ft | 136 kts | 90° |
| 2026-04-20 00:26 | 33.43121 | -112.04178 | 1426 ft | 140 kts | 91° |
| 2026-04-20 00:26 | 33.43111 | -112.03020 | 1260 ft | 141 kts | 92° |
| 2026-04-20 00:26 | 33.43104 | -112.01930 | 1131 ft | 119 kts | 88° |
| 2026-04-20 00:26 | 33.43106 | -112.01030 | 1130 ft | 97 kts | 90° |
| 2026-04-20 00:27 | 33.43104 | -112.00380 | 1132 ft | 50 kts | 90° |
| 2026-04-20 00:27 | 33.43137 | -111.99989 | 1135 ft | 38 kts | 56° |
| 2026-04-20 00:27 | 33.43221 | -111.99848 | 1131 ft | 17 kts | 65° |
| 2026-04-20 00:27 | 33.43276 | -111.99819 | 1133 ft | 2 kts | 325° |
| 2026-04-20 00:28 | 33.43283 | -111.99836 | 1133 ft | 3 kts | 283° |
| 2026-04-20 00:28 | 33.43283 | -111.99872 | 1131 ft | 6 kts | 271° |
| 2026-04-20 00:28 | 33.43284 | -111.99958 | 1131 ft | 16 kts | 270° |
| 2026-04-20 00:28 | 33.43283 | -112.00140 | 1133 ft | 27 kts | 270° |
| 2026-04-20 00:29 | 33.43282 | -112.00408 | 1130 ft | 35 kts | 270° |
| 2026-04-20 00:29 | 33.43287 | -112.00688 | 1130 ft | 33 kts | 270° |
| 2026-04-20 00:29 | 33.43290 | -112.00936 | 1131 ft | 18 kts | 271° |
| 2026-04-20 00:29 | 33.43342 | -112.01052 | 1132 ft | 18 kts | 350° |
| 2026-04-20 00:30 | 33.43398 | -112.01057 | 1132 ft | 0 kts | 359° |